sensor_id;sensor_type;location;lat;lon;timestamp;pressure;altitude;pressure_sealevel;temperature;humidity
23166;BME280;11751;42.700;24.170;2022-12-29T00:00:06;94910.91;;;4.98;96.08
23166;BME280;11751;42.700;24.170;2022-12-29T00:02:31;94906.59;;;4.92;95.74
23166;BME280;11751;42.700;24.170;2022-12-29T00:04:57;94902.56;;;4.93;96.04
23166;BME280;11751;42.700;24.170;2022-12-29T00:07:22;94908.09;;;4.82;96.25
23166;BME280;11751;42.700;24.170;2022-12-29T00:09:48;94908.84;;;4.82;96.10
23166;BME280;11751;42.700;24.170;2022-12-29T00:12:13;94913.69;;;4.93;95.59
23166;BME280;11751;42.700;24.170;2022-12-29T00:14:39;94919.97;;;4.93;95.46
23166;BME280;11751;42.700;24.170;2022-12-29T00:17:23;94921.47;;;4.89;95.41
23166;BME280;11751;42.700;24.170;2022-12-29T00:19:48;94924.25;;;4.89;95.41
23166;BME280;11751;42.700;24.170;2022-12-29T00:22:32;94922.72;;;4.88;95.10
23166;BME280;11751;42.700;24.170;2022-12-29T00:25:16;94923.72;;;4.85;94.83
23166;BME280;11751;42.700;24.170;2022-12-29T00:28:00;94917.41;;;4.79;94.89
23166;BME280;11751;42.700;24.170;2022-12-29T00:30:44;94912.84;;;4.70;94.54
23166;BME280;11751;42.700;24.170;2022-12-29T00:33:33;94920.66;;;4.72;94.33
23166;BME280;11751;42.700;24.170;2022-12-29T00:36:32;94926.47;;;4.68;94.40
23166;BME280;11751;42.700;24.170;2022-12-29T00:39:03;94915.31;;;4.52;94.88
23166;BME280;11751;42.700;24.170;2022-12-29T00:41:48;94911.16;;;4.25;95.82
23166;BME280;11751;42.700;24.170;2022-12-29T00:44:33;94910.41;;;4.25;95.76
23166;BME280;11751;42.700;24.170;2022-12-29T00:46:58;94912.97;;;4.34;95.57
23166;BME280;11751;42.700;24.170;2022-12-29T00:49:28;94931.13;;;4.35;95.33
23166;BME280;11751;42.700;24.170;2022-12-29T00:52:08;94935.13;;;4.34;95.04
23166;BME280;11751;42.700;24.170;2022-12-29T00:54:36;94935.59;;;4.27;95.23
23166;BME280;11751;42.700;24.170;2022-12-29T00:57:03;94942.66;;;4.28;95.29
23166;BME280;11751;42.700;24.170;2022-12-29T00:59:28;94943.94;;;4.32;95.17
23166;BME280;11751;42.700;24.170;2022-12-29T01:01:55;94931.09;;;4.29;95.53
23166;BME280;11751;42.700;24.170;2022-12-29T01:04:22;94937.38;;;4.30;95.63
23166;BME280;11751;42.700;24.170;2022-12-29T01:06:48;94942.41;;;4.31;95.46
23166;BME280;11751;42.700;24.170;2022-12-29T01:09:14;94944.72;;;4.33;95.90
23166;BME280;11751;42.700;24.170;2022-12-29T01:11:58;94940.91;;;4.36;95.55
23166;BME280;11751;42.700;24.170;2022-12-29T01:14:24;94946.47;;;4.36;95.47
23166;BME280;11751;42.700;24.170;2022-12-29T01:16:50;94934.91;;;4.37;95.25
23166;BME280;11751;42.700;24.170;2022-12-29T01:19:17;94926.00;;;4.22;96.09
23166;BME280;11751;42.700;24.170;2022-12-29T01:21:43;94926.78;;;4.28;95.69
23166;BME280;11751;42.700;24.170;2022-12-29T01:24:08;94923.25;;;4.28;94.96
23166;BME280;11751;42.700;24.170;2022-12-29T01:26:34;94924.44;;;4.16;95.49
23166;BME280;11751;42.700;24.170;2022-12-29T01:29:00;94920.81;;;3.99;95.98
23166;BME280;11751;42.700;24.170;2022-12-29T01:31:25;94923.94;;;4.12;95.88
23166;BME280;11751;42.700;24.170;2022-12-29T01:33:50;94922.94;;;4.15;95.93
23166;BME280;11751;42.700;24.170;2022-12-29T01:36:17;94921.69;;;4.21;95.96
23166;BME280;11751;42.700;24.170;2022-12-29T01:38:43;94906.31;;;4.15;96.12
23166;BME280;11751;42.700;24.170;2022-12-29T01:41:11;94905.56;;;4.20;96.37
23166;BME280;11751;42.700;24.170;2022-12-29T01:43:42;94886.06;;;3.98;96.40
23166;BME280;11751;42.700;24.170;2022-12-29T01:46:33;94898.22;;;4.12;96.80
23166;BME280;11751;42.700;24.170;2022-12-29T01:49:20;94893.16;;;4.05;96.59
23166;BME280;11751;42.700;24.170;2022-12-29T01:54:43;94896.69;;;4.05;96.84
23166;BME280;11751;42.700;24.170;2022-12-29T01:57:14;94896.16;;;4.01;96.82
23166;BME280;11751;42.700;24.170;2022-12-29T01:59:56;94883.00;;;3.91;96.96
23166;BME280;11751;42.700;24.170;2022-12-29T02:02:23;94884.31;;;4.01;96.99
23166;BME280;11751;42.700;24.170;2022-12-29T02:04:50;94885.81;;;4.02;96.93
23166;BME280;11751;42.700;24.170;2022-12-29T02:07:19;94882.31;;;4.01;97.08
23166;BME280;11751;42.700;24.170;2022-12-29T02:09:50;94881.06;;;4.02;96.93
23166;BME280;11751;42.700;24.170;2022-12-29T02:12:19;94868.44;;;4.01;96.90
23166;BME280;11751;42.700;24.170;2022-12-29T02:14:47;94879.28;;;4.05;96.96
23166;BME280;11751;42.700;24.170;2022-12-29T02:20:37;94867.19;;;4.02;97.31
23166;BME280;11751;42.700;24.170;2022-12-29T02:31:54;94860.34;;;3.92;97.92
23166;BME280;11751;42.700;24.170;2022-12-29T02:37:19;94864.25;;;3.75;99.05
23166;BME280;11751;42.700;24.170;2022-12-29T02:42:58;94862.56;;;3.88;98.95
23166;BME280;11751;42.700;24.170;2022-12-29T02:50:37;94863.69;;;4.13;98.17
23166;BME280;11751;42.700;24.170;2022-12-29T02:53:15;94860.69;;;4.16;97.97
23166;BME280;11751;42.700;24.170;2022-12-29T02:55:49;94858.47;;;4.20;97.79
23166;BME280;11751;42.700;24.170;2022-12-29T02:58:21;94859.22;;;4.26;97.38
23166;BME280;11751;42.700;24.170;2022-12-29T03:04:13;94858.47;;;4.20;97.25
23166;BME280;11751;42.700;24.170;2022-12-29T03:06:46;94863.50;;;4.27;97.25
23166;BME280;11751;42.700;24.170;2022-12-29T03:15:34;94855.72;;;4.25;96.94
23166;BME280;11751;42.700;24.170;2022-12-29T03:18:23;94854.91;;;4.14;97.57
23166;BME280;11751;42.700;24.170;2022-12-29T03:20:53;94866.78;;;4.20;97.54
23166;BME280;11751;42.700;24.170;2022-12-29T03:23:21;94855.72;;;4.25;97.00
23166;BME280;11751;42.700;24.170;2022-12-29T03:25:51;94860.25;;;4.28;96.98
23166;BME280;11751;42.700;24.170;2022-12-29T03:28:23;94862.53;;;4.30;96.63
23166;BME280;11751;42.700;24.170;2022-12-29T03:30:49;94852.19;;;4.25;96.30
23166;BME280;11751;42.700;24.170;2022-12-29T03:33:18;94856.88;;;4.08;97.56
23166;BME280;11751;42.700;24.170;2022-12-29T03:35:48;94851.88;;;4.12;97.16
23166;BME280;11751;42.700;24.170;2022-12-29T03:41:00;94856.31;;;3.93;96.77
23166;BME280;11751;42.700;24.170;2022-12-29T03:43:29;94859.06;;;3.88;97.04
23166;BME280;11751;42.700;24.170;2022-12-29T03:45:54;94866.13;;;3.89;96.67
23166;BME280;11751;42.700;24.170;2022-12-29T03:48:20;94859.81;;;3.88;96.28
23166;BME280;11751;42.700;24.170;2022-12-29T03:50:46;94863.00;;;3.76;96.98
23166;BME280;11751;42.700;24.170;2022-12-29T03:53:11;94864.81;;;3.79;97.09
23166;BME280;11751;42.700;24.170;2022-12-29T03:55:36;94866.56;;;3.76;96.30
23166;BME280;11751;42.700;24.170;2022-12-29T03:58:02;94861.72;;;3.71;95.86
23166;BME280;11751;42.700;24.170;2022-12-29T04:00:27;94864.41;;;3.60;95.55
23166;BME280;11751;42.700;24.170;2022-12-29T04:02:53;94867.41;;;3.57;95.80
23166;BME280;11751;42.700;24.170;2022-12-29T04:05:19;94862.53;;;3.41;96.50
23166;BME280;11751;42.700;24.170;2022-12-29T04:07:44;94869.38;;;3.45;97.04
23166;BME280;11751;42.700;24.170;2022-12-29T04:10:10;94861.28;;;3.42;96.57
23166;BME280;11751;42.700;24.170;2022-12-29T04:12:35;94867.94;;;3.25;96.86
23166;BME280;11751;42.700;24.170;2022-12-29T04:15:01;94868.16;;;3.21;97.28
23166;BME280;11751;42.700;24.170;2022-12-29T04:17:26;94869.16;;;3.18;97.03
23166;BME280;11751;42.700;24.170;2022-12-29T04:19:51;94870.06;;;3.10;97.30
23166;BME280;11751;42.700;24.170;2022-12-29T04:22:37;94864.75;;;3.06;97.23
23166;BME280;11751;42.700;24.170;2022-12-29T04:25:02;94866.78;;;3.06;97.48
23166;BME280;11751;42.700;24.170;2022-12-29T04:27:27;94865.50;;;3.01;97.67
23166;BME280;11751;42.700;24.170;2022-12-29T04:29:53;94865.25;;;3.05;97.91
23166;BME280;11751;42.700;24.170;2022-12-29T04:32:18;94863.00;;;3.03;97.59
23166;BME280;11751;42.700;24.170;2022-12-29T04:34:44;94858.22;;;3.04;97.63
23166;BME280;11751;42.700;24.170;2022-12-29T04:37:09;94859.63;;;2.94;98.08
23166;BME280;11751;42.700;24.170;2022-12-29T04:39:34;94861.03;;;2.84;98.15
23166;BME280;11751;42.700;24.170;2022-12-29T04:42:00;94859.78;;;2.85;98.51
23166;BME280;11751;42.700;24.170;2022-12-29T04:44:25;94861.25;;;2.80;98.54
23166;BME280;11751;42.700;24.170;2022-12-29T04:46:50;94865.59;;;2.87;98.28
23166;BME280;11751;42.700;24.170;2022-12-29T04:49:16;94861.53;;;2.82;98.52
23166;BME280;11751;42.700;24.170;2022-12-29T04:51:41;94854.00;;;2.83;98.24
23166;BME280;11751;42.700;24.170;2022-12-29T04:54:07;94850.22;;;2.80;98.49
23166;BME280;11751;42.700;24.170;2022-12-29T04:56:33;94851.94;;;2.78;98.98
23166;BME280;11751;42.700;24.170;2022-12-29T04:58:58;94862.34;;;2.63;99.43
23166;BME280;11751;42.700;24.170;2022-12-29T05:01:24;94856.47;;;2.55;99.94
23166;BME280;11751;42.700;24.170;2022-12-29T05:03:50;94851.59;;;2.45;100.00
23166;BME280;11751;42.700;24.170;2022-12-29T05:06:17;94853.88;;;2.47;100.00
23166;BME280;11751;42.700;24.170;2022-12-29T05:08:42;94856.84;;;2.43;100.00
23166;BME280;11751;42.700;24.170;2022-12-29T05:11:07;94864.19;;;2.46;100.00
23166;BME280;11751;42.700;24.170;2022-12-29T05:13:33;94855.56;;;2.39;100.00
23166;BME280;11751;42.700;24.170;2022-12-29T05:15:58;94856.56;;;2.41;100.00
23166;BME280;11751;42.700;24.170;2022-12-29T05:18:24;94867.22;;;2.48;100.00
23166;BME280;11751;42.700;24.170;2022-12-29T05:20:49;94862.94;;;2.47;100.00
23166;BME280;11751;42.700;24.170;2022-12-29T05:23:15;94872.97;;;2.45;99.78
23166;BME280;11751;42.700;24.170;2022-12-29T05:25:40;94872.41;;;2.41;99.89
23166;BME280;11751;42.700;24.170;2022-12-29T05:28:06;94872.53;;;2.52;99.43
23166;BME280;11751;42.700;24.170;2022-12-29T05:30:31;94874.28;;;2.49;98.97
23166;BME280;11751;42.700;24.170;2022-12-29T05:32:57;94876.75;;;2.47;98.75
23166;BME280;11751;42.700;24.170;2022-12-29T05:35:22;94876.19;;;2.43;99.11
23166;BME280;11751;42.700;24.170;2022-12-29T05:37:47;94885.19;;;2.38;99.20
23166;BME280;11751;42.700;24.170;2022-12-29T05:40:13;94885.72;;;2.42;99.33
23166;BME280;11751;42.700;24.170;2022-12-29T05:42:38;94874.31;;;2.29;99.89
23166;BME280;11751;42.700;24.170;2022-12-29T05:45:04;94880.34;;;2.33;99.69
23166;BME280;11751;42.700;24.170;2022-12-29T05:47:32;94884.72;;;2.20;100.00
23166;BME280;11751;42.700;24.170;2022-12-29T05:49:57;94882.16;;;1.96;100.00
23166;BME280;11751;42.700;24.170;2022-12-29T05:52:23;94882.72;;;2.00;100.00
23166;BME280;11751;42.700;24.170;2022-12-29T05:54:48;94881.38;;;1.96;100.00
23166;BME280;11751;42.700;24.170;2022-12-29T05:57:14;94879.19;;;2.00;100.00
23166;BME280;11751;42.700;24.170;2022-12-29T05:59:39;94877.22;;;2.00;100.00
23166;BME280;11751;42.700;24.170;2022-12-29T06:02:04;94884.16;;;1.96;100.00
23166;BME280;11751;42.700;24.170;2022-12-29T06:04:31;94898.09;;;2.07;99.91
23166;BME280;11751;42.700;24.170;2022-12-29T06:06:56;94909.22;;;1.92;99.98
23166;BME280;11751;42.700;24.170;2022-12-29T06:09:22;94905.50;;;1.95;100.00
23166;BME280;11751;42.700;24.170;2022-12-29T06:11:48;94902.06;;;2.00;99.92
23166;BME280;11751;42.700;24.170;2022-12-29T06:14:13;94906.19;;;1.90;99.90
23166;BME280;11751;42.700;24.170;2022-12-29T06:16:38;94908.25;;;1.95;99.83
23166;BME280;11751;42.700;24.170;2022-12-29T06:19:04;94898.38;;;1.89;99.90
23166;BME280;11751;42.700;24.170;2022-12-29T06:21:29;94912.25;;;1.94;99.62
23166;BME280;11751;42.700;24.170;2022-12-29T06:23:55;94907.69;;;1.91;99.68
23166;BME280;11751;42.700;24.170;2022-12-29T06:26:20;94904.75;;;1.95;99.62
23166;BME280;11751;42.700;24.170;2022-12-29T06:28:45;94913.88;;;1.67;100.00
23166;BME280;11751;42.700;24.170;2022-12-29T06:31:12;94899.91;;;1.56;100.00
23166;BME280;11751;42.700;24.170;2022-12-29T06:33:38;94902.84;;;1.67;100.00
23166;BME280;11751;42.700;24.170;2022-12-29T06:36:04;94911.16;;;1.86;100.00
23166;BME280;11751;42.700;24.170;2022-12-29T06:38:29;94902.00;;;1.95;100.00
23166;BME280;11751;42.700;24.170;2022-12-29T06:40:55;94912.06;;;1.98;100.00
23166;BME280;11751;42.700;24.170;2022-12-29T06:43:20;94914.88;;;2.03;100.00
23166;BME280;11751;42.700;24.170;2022-12-29T06:45:45;94904.34;;;2.02;100.00
23166;BME280;11751;42.700;24.170;2022-12-29T06:48:11;94909.94;;;2.07;100.00
23166;BME280;11751;42.700;24.170;2022-12-29T06:50:37;94908.41;;;2.06;100.00
23166;BME280;11751;42.700;24.170;2022-12-29T06:53:02;94908.00;;;2.13;100.00
23166;BME280;11751;42.700;24.170;2022-12-29T06:55:28;94911.59;;;2.19;100.00
23166;BME280;11751;42.700;24.170;2022-12-29T06:57:55;94918.69;;;2.06;100.00
23166;BME280;11751;42.700;24.170;2022-12-29T07:00:21;94902.00;;;2.15;100.00
23166;BME280;11751;42.700;24.170;2022-12-29T07:02:47;94915.81;;;2.35;100.00
23166;BME280;11751;42.700;24.170;2022-12-29T07:05:12;94906.53;;;2.38;100.00
23166;BME280;11751;42.700;24.170;2022-12-29T07:07:38;94924.28;;;2.51;100.00
23166;BME280;11751;42.700;24.170;2022-12-29T07:10:04;94920.84;;;2.56;100.00
23166;BME280;11751;42.700;24.170;2022-12-29T07:12:29;94914.47;;;2.50;100.00
23166;BME280;11751;42.700;24.170;2022-12-29T07:14:55;94918.59;;;2.60;100.00
23166;BME280;11751;42.700;24.170;2022-12-29T07:17:20;94918.06;;;2.56;100.00
23166;BME280;11751;42.700;24.170;2022-12-29T07:19:46;94911.13;;;2.66;100.00
23166;BME280;11751;42.700;24.170;2022-12-29T07:22:11;94910.72;;;2.73;100.00
23166;BME280;11751;42.700;24.170;2022-12-29T07:24:36;94911.38;;;2.88;100.00
23166;BME280;11751;42.700;24.170;2022-12-29T07:27:02;94902.34;;;2.67;100.00
23166;BME280;11751;42.700;24.170;2022-12-29T07:29:28;94914.63;;;2.86;100.00
23166;BME280;11751;42.700;24.170;2022-12-29T07:31:53;94920.59;;;3.05;100.00
23166;BME280;11751;42.700;24.170;2022-12-29T07:34:19;94912.13;;;3.14;100.00
23166;BME280;11751;42.700;24.170;2022-12-29T07:36:44;94922.84;;;3.32;99.58
23166;BME280;11751;42.700;24.170;2022-12-29T07:39:09;94927.50;;;3.45;99.39
23166;BME280;11751;42.700;24.170;2022-12-29T07:41:36;94920.78;;;3.57;98.90
23166;BME280;11751;42.700;24.170;2022-12-29T07:44:02;94918.09;;;3.68;98.53
23166;BME280;11751;42.700;24.170;2022-12-29T07:46:27;94915.69;;;3.81;97.55
23166;BME280;11751;42.700;24.170;2022-12-29T07:48:53;94917.75;;;3.86;97.38
23166;BME280;11751;42.700;24.170;2022-12-29T07:51:18;94907.72;;;3.94;96.95
23166;BME280;11751;42.700;24.170;2022-12-29T07:53:44;94907.50;;;4.03;96.47
23166;BME280;11751;42.700;24.170;2022-12-29T07:56:09;94915.63;;;4.12;96.59
23166;BME280;11751;42.700;24.170;2022-12-29T07:58:34;94904.09;;;4.24;96.20
23166;BME280;11751;42.700;24.170;2022-12-29T08:01:00;94909.66;;;4.30;96.04
23166;BME280;11751;42.700;24.170;2022-12-29T08:03:25;94904.16;;;4.41;95.66
23166;BME280;11751;42.700;24.170;2022-12-29T08:05:51;94908.72;;;4.44;95.53
23166;BME280;11751;42.700;24.170;2022-12-29T08:08:16;94902.41;;;4.43;95.61
23166;BME280;11751;42.700;24.170;2022-12-29T08:10:42;94903.94;;;4.50;95.10
23166;BME280;11751;42.700;24.170;2022-12-29T08:13:07;94910.53;;;4.63;95.04
23166;BME280;11751;42.700;24.170;2022-12-29T08:15:32;94910.31;;;4.72;94.55
23166;BME280;11751;42.700;24.170;2022-12-29T08:17:58;94902.03;;;4.78;94.83
23166;BME280;11751;42.700;24.170;2022-12-29T08:20:23;94901.53;;;4.85;94.36
23166;BME280;11751;42.700;24.170;2022-12-29T08:22:50;94892.22;;;4.93;93.63
23166;BME280;11751;42.700;24.170;2022-12-29T08:25:15;94899.84;;;5.09;93.51
23166;BME280;11751;42.700;24.170;2022-12-29T08:27:41;94893.53;;;5.19;93.22
23166;BME280;11751;42.700;24.170;2022-12-29T08:30:07;94899.59;;;5.23;93.21
23166;BME280;11751;42.700;24.170;2022-12-29T08:32:33;94897.56;;;5.29;93.25
23166;BME280;11751;42.700;24.170;2022-12-29T08:34:58;94891.53;;;5.47;92.46
23166;BME280;11751;42.700;24.170;2022-12-29T08:37:24;94896.31;;;5.63;92.18
23166;BME280;11751;42.700;24.170;2022-12-29T08:39:49;94899.09;;;5.74;91.27
23166;BME280;11751;42.700;24.170;2022-12-29T08:42:15;94890.00;;;5.90;91.13
23166;BME280;11751;42.700;24.170;2022-12-29T08:44:40;94888.97;;;5.98;90.91
23166;BME280;11751;42.700;24.170;2022-12-29T08:47:06;94895.28;;;6.15;90.63
23166;BME280;11751;42.700;24.170;2022-12-29T08:49:31;94887.69;;;6.05;90.49
23166;BME280;11751;42.700;24.170;2022-12-29T08:51:58;94890.44;;;6.27;89.89
23166;BME280;11751;42.700;24.170;2022-12-29T08:54:24;94886.38;;;6.33;89.70
23166;BME280;11751;42.700;24.170;2022-12-29T08:56:49;94881.03;;;6.41;89.44
23166;BME280;11751;42.700;24.170;2022-12-29T08:59:14;94888.03;;;6.58;88.74
23166;BME280;11751;42.700;24.170;2022-12-29T09:01:40;94888.03;;;6.58;88.69
23166;BME280;11751;42.700;24.170;2022-12-29T09:04:06;94878.69;;;6.56;88.72
23166;BME280;11751;42.700;24.170;2022-12-29T09:06:32;94872.31;;;6.66;88.02
23166;BME280;11751;42.700;24.170;2022-12-29T09:08:57;94872.06;;;6.70;86.83
23166;BME280;11751;42.700;24.170;2022-12-29T09:11:24;94868.47;;;6.75;86.31
23166;BME280;11751;42.700;24.170;2022-12-29T09:13:51;94874.03;;;6.80;86.69
23166;BME280;11751;42.700;24.170;2022-12-29T09:16:16;94867.13;;;6.92;86.32
23166;BME280;11751;42.700;24.170;2022-12-29T09:18:43;94861.78;;;6.99;86.03
23166;BME280;11751;42.700;24.170;2022-12-29T09:21:10;94861.69;;;7.10;86.27
23166;BME280;11751;42.700;24.170;2022-12-29T09:23:36;94869.47;;;7.23;85.16
23166;BME280;11751;42.700;24.170;2022-12-29T09:26:01;94873.38;;;7.44;84.48
23166;BME280;11751;42.700;24.170;2022-12-29T09:28:27;94867.72;;;7.49;84.07
23166;BME280;11751;42.700;24.170;2022-12-29T09:30:54;94860.63;;;7.54;82.57
23166;BME280;11751;42.700;24.170;2022-12-29T09:33:19;94857.66;;;7.70;81.87
23166;BME280;11751;42.700;24.170;2022-12-29T09:35:54;94843.94;;;7.77;81.45
23166;BME280;11751;42.700;24.170;2022-12-29T09:38:20;94842.75;;;7.97;82.13
23166;BME280;11751;42.700;24.170;2022-12-29T09:40:51;94832.50;;;8.05;81.66
23166;BME280;11751;42.700;24.170;2022-12-29T09:46:32;94834.56;;;8.28;79.21
23166;BME280;11751;42.700;24.170;2022-12-29T09:51:31;94817.69;;;8.57;78.19
23166;BME280;11751;42.700;24.170;2022-12-29T09:53:59;94821.13;;;8.69;77.57
23166;BME280;11751;42.700;24.170;2022-12-29T09:56:26;94809.25;;;8.81;78.04
23166;BME280;11751;42.700;24.170;2022-12-29T09:59:05;94814.53;;;9.03;78.34
23166;BME280;11751;42.700;24.170;2022-12-29T10:01:51;94816.06;;;9.04;77.16
23166;BME280;11751;42.700;24.170;2022-12-29T10:04:18;94816.31;;;9.19;76.67
23166;BME280;11751;42.700;24.170;2022-12-29T10:12:28;94798.84;;;9.32;75.61
23166;BME280;11751;42.700;24.170;2022-12-29T10:25:25;94788.53;;;9.71;73.86
23166;BME280;11751;42.700;24.170;2022-12-29T10:27:53;94792.44;;;9.94;74.10
23166;BME280;11751;42.700;24.170;2022-12-29T10:30:21;94777.66;;;10.12;73.45
23166;BME280;11751;42.700;24.170;2022-12-29T10:32:56;94777.00;;;10.19;74.58
23166;BME280;11751;42.700;24.170;2022-12-29T10:35:37;94770.75;;;10.25;75.04
23166;BME280;11751;42.700;24.170;2022-12-29T10:43:25;94774.84;;;10.50;74.92
23166;BME280;11751;42.700;24.170;2022-12-29T10:46:00;94780.53;;;10.45;74.49
23166;BME280;11751;42.700;24.170;2022-12-29T10:48:35;94759.94;;;10.55;74.74
23166;BME280;11751;42.700;24.170;2022-12-29T10:51:03;94760.78;;;10.63;74.26
23166;BME280;11751;42.700;24.170;2022-12-29T10:53:52;94763.53;;;10.56;74.35
23166;BME280;11751;42.700;24.170;2022-12-29T10:56:51;94758.38;;;10.47;75.20
23166;BME280;11751;42.700;24.170;2022-12-29T10:59:23;94760.06;;;10.63;75.63
23166;BME280;11751;42.700;24.170;2022-12-29T11:06:59;94742.75;;;10.85;74.62
23166;BME280;11751;42.700;24.170;2022-12-29T11:09:29;94748.28;;;10.77;74.60
23166;BME280;11751;42.700;24.170;2022-12-29T11:11:56;94749.78;;;10.78;73.37
23166;BME280;11751;42.700;24.170;2022-12-29T11:14:28;94747.81;;;10.86;73.64
23166;BME280;11751;42.700;24.170;2022-12-29T11:17:02;94747.78;;;10.99;73.92
23166;BME280;11751;42.700;24.170;2022-12-29T11:19:30;94747.44;;;11.03;74.07
23166;BME280;11751;42.700;24.170;2022-12-29T11:22:22;94743.47;;;10.98;73.79
23166;BME280;11751;42.700;24.170;2022-12-29T11:24:50;94736.59;;;10.86;73.27
23166;BME280;11751;42.700;24.170;2022-12-29T11:27:17;94739.13;;;11.10;73.09
23166;BME280;11751;42.700;24.170;2022-12-29T11:29:44;94739.47;;;11.27;72.62
23166;BME280;11751;42.700;24.170;2022-12-29T11:32:18;94734.34;;;11.38;72.12
23166;BME280;11751;42.700;24.170;2022-12-29T11:34:44;94731.28;;;11.29;71.97
23166;BME280;11751;42.700;24.170;2022-12-29T11:37:16;94730.03;;;11.37;72.08
23166;BME280;11751;42.700;24.170;2022-12-29T11:39:53;94731.66;;;11.33;71.33
23166;BME280;11751;42.700;24.170;2022-12-29T11:42:28;94730.44;;;11.41;71.29
23166;BME280;11751;42.700;24.170;2022-12-29T11:45:04;94731.19;;;11.42;70.92
23166;BME280;11751;42.700;24.170;2022-12-29T11:47:31;94728.72;;;11.38;72.05
23166;BME280;11751;42.700;24.170;2022-12-29T11:50:03;94724.22;;;11.35;71.78
23166;BME280;11751;42.700;24.170;2022-12-29T11:52:33;94728.66;;;11.31;71.60
23166;BME280;11751;42.700;24.170;2022-12-29T11:55:03;94722.63;;;11.47;71.90
23166;BME280;11751;42.700;24.170;2022-12-29T11:57:32;94725.66;;;11.29;72.21
23166;BME280;11751;42.700;24.170;2022-12-29T12:00:02;94716.63;;;11.43;71.88
23166;BME280;11751;42.700;24.170;2022-12-29T12:02:40;94723.28;;;11.53;71.51
23166;BME280;11751;42.700;24.170;2022-12-29T12:05:19;94726.34;;;11.63;71.42
23166;BME280;11751;42.700;24.170;2022-12-29T12:07:49;94715.34;;;11.44;70.16
23166;BME280;11751;42.700;24.170;2022-12-29T12:10:24;94714.22;;;11.47;69.14
23166;BME280;11751;42.700;24.170;2022-12-29T12:15:47;94713.81;;;11.43;70.01
23166;BME280;11751;42.700;24.170;2022-12-29T12:19:01;94703.69;;;11.61;70.74
23166;BME280;11751;42.700;24.170;2022-12-29T12:21:40;94703.53;;;11.59;70.74
23166;BME280;11751;42.700;24.170;2022-12-29T12:24:37;94698.50;;;11.65;70.75
23166;BME280;11751;42.700;24.170;2022-12-29T12:32:17;94693.28;;;11.48;70.18
23166;BME280;11751;42.700;24.170;2022-12-29T12:34:46;94694.81;;;11.49;70.42
23166;BME280;11751;42.700;24.170;2022-12-29T12:37:54;94691.31;;;11.36;70.42
23166;BME280;11751;42.700;24.170;2022-12-29T12:51:19;94691.94;;;11.62;70.08
23166;BME280;11751;42.700;24.170;2022-12-29T13:10:42;94698.00;;;11.74;68.65
23166;BME280;11751;42.700;24.170;2022-12-29T13:21:29;94692.69;;;11.91;68.24
23166;BME280;11751;42.700;24.170;2022-12-29T13:24:21;94690.00;;;11.78;68.88
23166;BME280;11751;42.700;24.170;2022-12-29T13:26:50;94693.81;;;11.88;68.05
23166;BME280;11751;42.700;24.170;2022-12-29T13:29:41;94688.94;;;11.88;67.90
23166;BME280;11751;42.700;24.170;2022-12-29T13:37:51;94689.19;;;11.97;67.07
23166;BME280;11751;42.700;24.170;2022-12-29T13:40:23;94686.91;;;11.89;66.47
23166;BME280;11751;42.700;24.170;2022-12-29T13:42:49;94683.22;;;12.01;66.07
23166;BME280;11751;42.700;24.170;2022-12-29T13:45:34;94693.38;;;12.04;65.72
23166;BME280;11751;42.700;24.170;2022-12-29T13:48:13;94695.19;;;12.01;66.21
23166;BME280;11751;42.700;24.170;2022-12-29T13:50:46;94688.47;;;12.04;65.84
23166;BME280;11751;42.700;24.170;2022-12-29T13:53:41;94693.50;;;11.98;65.79
23166;BME280;11751;42.700;24.170;2022-12-29T13:56:17;94696.22;;;11.84;66.37
23166;BME280;11751;42.700;24.170;2022-12-29T14:01:28;94697.50;;;11.83;67.94
23166;BME280;11751;42.700;24.170;2022-12-29T14:03:57;94700.66;;;11.79;68.34
23166;BME280;11751;42.700;24.170;2022-12-29T14:06:27;94708.13;;;11.77;68.78
23166;BME280;11751;42.700;24.170;2022-12-29T14:08:58;94705.13;;;11.75;69.65
23166;BME280;11751;42.700;24.170;2022-12-29T14:11:36;94698.91;;;11.69;69.78
23166;BME280;11751;42.700;24.170;2022-12-29T14:16:45;94708.81;;;11.49;70.23
23166;BME280;11751;42.700;24.170;2022-12-29T14:21:54;94714.72;;;11.18;71.83
23166;BME280;11751;42.700;24.170;2022-12-29T14:24:44;94713.22;;;11.17;71.52
23166;BME280;11751;42.700;24.170;2022-12-29T14:37:35;94721.78;;;10.78;70.54
23166;BME280;11751;42.700;24.170;2022-12-29T14:40:08;94718.59;;;10.61;70.46
23166;BME280;11751;42.700;24.170;2022-12-29T14:42:40;94723.84;;;10.65;70.50
23166;BME280;11751;42.700;24.170;2022-12-29T14:47:46;94722.47;;;10.58;70.87
23166;BME280;11751;42.700;24.170;2022-12-29T14:50:41;94721.19;;;10.46;71.39
23166;BME280;11751;42.700;24.170;2022-12-29T14:53:43;94723.28;;;10.33;72.12
23166;BME280;11751;42.700;24.170;2022-12-29T14:56:10;94722.44;;;10.12;72.78
23166;BME280;11751;42.700;24.170;2022-12-29T15:01:17;94715.41;;;9.67;74.75
23166;BME280;11751;42.700;24.170;2022-12-29T15:03:49;94719.91;;;9.57;75.02
23166;BME280;11751;42.700;24.170;2022-12-29T15:06:15;94720.13;;;9.59;75.31
23166;BME280;11751;42.700;24.170;2022-12-29T15:08:51;94716.34;;;9.43;75.52
23166;BME280;11751;42.700;24.170;2022-12-29T15:11:21;94713.84;;;9.40;75.73
23166;BME280;11751;42.700;24.170;2022-12-29T15:13:47;94727.97;;;9.16;76.75
23166;BME280;11751;42.700;24.170;2022-12-29T15:16:30;94728.19;;;9.05;77.29
23166;BME280;11751;42.700;24.170;2022-12-29T15:18:57;94723.41;;;9.00;77.09
23166;BME280;11751;42.700;24.170;2022-12-29T15:21:30;94721.91;;;8.99;77.09
23166;BME280;11751;42.700;24.170;2022-12-29T15:23:57;94724.28;;;8.95;77.15
23166;BME280;11751;42.700;24.170;2022-12-29T15:26:23;94731.69;;;8.74;78.40
23166;BME280;11751;42.700;24.170;2022-12-29T15:29:00;94728.13;;;8.74;78.09
23166;BME280;11751;42.700;24.170;2022-12-29T15:31:26;94734.34;;;8.48;79.57
23166;BME280;11751;42.700;24.170;2022-12-29T15:34:03;94737.06;;;8.36;79.61